sensor_id;sensor_type;location;lat;lon;timestamp;pressure;altitude;pressure_sealevel;temperature;humidity
21129;BME280;10722;51.910;8.352;2023-02-28T00:02:29;102298.78;;;-0.85;85.55
21129;BME280;10722;51.910;8.352;2023-02-28T00:05:18;102299.91;;;-0.92;86.30
21129;BME280;10722;51.910;8.352;2023-02-28T00:08:03;102301.56;;;-1.11;87.08
21129;BME280;10722;51.910;8.352;2023-02-28T00:10:49;102307.78;;;-1.07;87.37
21129;BME280;10722;51.910;8.352;2023-02-28T00:13:38;102302.78;;;-1.16;88.15
21129;BME280;10722;51.910;8.352;2023-02-28T00:16:23;102301.44;;;-1.13;88.59
21129;BME280;10722;51.910;8.352;2023-02-28T00:19:09;102309.78;;;-1.14;89.04
21129;BME280;10722;51.910;8.352;2023-02-28T00:21:54;102300.47;;;-1.23;89.44
21129;BME280;10722;51.910;8.352;2023-02-28T00:24:39;102307.53;;;-1.29;89.86
21129;BME280;10722;51.910;8.352;2023-02-28T00:27:24;102304.41;;;-1.36;90.35
21129;BME280;10722;51.910;8.352;2023-02-28T00:30:17;102313.97;;;-1.33;91.17
21129;BME280;10722;51.910;8.352;2023-02-28T00:33:03;102313.84;;;-1.34;91.26
21129;BME280;10722;51.910;8.352;2023-02-28T00:35:48;102310.91;;;-1.20;91.63
21129;BME280;10722;51.910;8.352;2023-02-28T00:38:34;102324.00;;;-1.34;91.76
21129;BME280;10722;51.910;8.352;2023-02-28T00:41:19;102322.41;;;-1.43;92.18
21129;BME280;10722;51.910;8.352;2023-02-28T00:44:04;102319.59;;;-1.46;93.05
21129;BME280;10722;51.910;8.352;2023-02-28T00:46:50;102337.75;;;-1.41;93.40
21129;BME280;10722;51.910;8.352;2023-02-28T00:49:35;102336.69;;;-1.34;93.51
21129;BME280;10722;51.910;8.352;2023-02-28T00:52:20;102331.91;;;-1.31;94.13
21129;BME280;10722;51.910;8.352;2023-02-28T00:55:05;102334.16;;;-1.34;94.67
21129;BME280;10722;51.910;8.352;2023-02-28T00:57:50;102344.88;;;-1.28;95.37
21129;BME280;10722;51.910;8.352;2023-02-28T01:00:35;102342.03;;;-1.31;95.50
21129;BME280;10722;51.910;8.352;2023-02-28T01:03:23;102350.72;;;-1.29;95.75
21129;BME280;10722;51.910;8.352;2023-02-28T01:06:08;102342.78;;;-1.32;95.81
21129;BME280;10722;51.910;8.352;2023-02-28T01:08:54;102338.19;;;-1.37;96.17
21129;BME280;10722;51.910;8.352;2023-02-28T01:11:39;102346.91;;;-1.24;96.27
21129;BME280;10722;51.910;8.352;2023-02-28T01:14:24;102344.25;;;-1.26;95.66
21129;BME280;10722;51.910;8.352;2023-02-28T01:17:09;102337.25;;;-1.28;95.88
21129;BME280;10722;51.910;8.352;2023-02-28T01:19:55;102327.22;;;-1.27;95.22
21129;BME280;10722;51.910;8.352;2023-02-28T01:22:40;102334.00;;;-1.36;95.09
21129;BME280;10722;51.910;8.352;2023-02-28T01:25:25;102322.41;;;-1.43;94.64
21129;BME280;10722;51.910;8.352;2023-02-28T01:28:10;102329.81;;;-1.36;94.60
21129;BME280;10722;51.910;8.352;2023-02-28T01:30:56;102320.50;;;-1.26;94.03
21129;BME280;10722;51.910;8.352;2023-02-28T01:33:41;102319.53;;;-1.37;93.63
21129;BME280;10722;51.910;8.352;2023-02-28T01:36:26;102316.94;;;-1.28;93.95
21129;BME280;10722;51.910;8.352;2023-02-28T01:39:12;102310.44;;;-1.44;93.59
21129;BME280;10722;51.910;8.352;2023-02-28T01:41:57;102307.50;;;-1.48;93.59
21129;BME280;10722;51.910;8.352;2023-02-28T01:47:53;102315.25;;;-1.47;93.69
21129;BME280;10722;51.910;8.352;2023-02-28T01:50:41;102311.56;;;-1.31;93.32
21129;BME280;10722;51.910;8.352;2023-02-28T01:53:37;102307.13;;;-1.34;93.18
21129;BME280;10722;51.910;8.352;2023-02-28T01:56:27;102303.31;;;-1.48;92.77
21129;BME280;10722;51.910;8.352;2023-02-28T01:59:23;102303.03;;;-1.51;92.76
21129;BME280;10722;51.910;8.352;2023-02-28T02:02:10;102303.81;;;-1.79;92.96
21129;BME280;10722;51.910;8.352;2023-02-28T02:05:04;102308.16;;;-1.87;93.56
21129;BME280;10722;51.910;8.352;2023-02-28T02:07:54;102316.66;;;-1.87;93.85
21129;BME280;10722;51.910;8.352;2023-02-28T02:10:43;102311.47;;;-1.88;93.64
21129;BME280;10722;51.910;8.352;2023-02-28T02:14:10;102320.84;;;-1.87;93.46
21129;BME280;10722;51.910;8.352;2023-02-28T02:23:02;102323.16;;;-1.99;94.00
21129;BME280;10722;51.910;8.352;2023-02-28T02:26:06;102316.75;;;-2.04;94.22
21129;BME280;10722;51.910;8.352;2023-02-28T02:35:17;102326.78;;;-2.23;95.71
21129;BME280;10722;51.910;8.352;2023-02-28T02:41:08;102330.78;;;-2.08;96.33
21129;BME280;10722;51.910;8.352;2023-02-28T02:44:17;102328.09;;;-2.09;95.92
21129;BME280;10722;51.910;8.352;2023-02-28T02:47:12;102325.00;;;-2.15;95.86
21129;BME280;10722;51.910;8.352;2023-02-28T02:50:02;102321.31;;;-2.28;95.92
21129;BME280;10722;51.910;8.352;2023-02-28T02:52:53;102329.31;;;-2.23;96.52
21129;BME280;10722;51.910;8.352;2023-02-28T02:55:43;102329.25;;;-2.42;96.50
21129;BME280;10722;51.910;8.352;2023-02-28T02:58:32;102329.38;;;-2.40;96.63
21129;BME280;10722;51.910;8.352;2023-02-28T03:01:21;102337.88;;;-2.40;97.28
21129;BME280;10722;51.910;8.352;2023-02-28T03:04:10;102342.03;;;-2.32;97.40
21129;BME280;10722;51.910;8.352;2023-02-28T03:06:58;102340.41;;;-2.40;97.34
21129;BME280;10722;51.910;8.352;2023-02-28T03:09:54;102341.72;;;-2.26;97.62
21129;BME280;10722;51.910;8.352;2023-02-28T03:12:44;102337.72;;;-2.33;97.11
21129;BME280;10722;51.910;8.352;2023-02-28T03:25:54;102348.91;;;-2.48;97.91
21129;BME280;10722;51.910;8.352;2023-02-28T03:28:53;102341.00;;;-2.42;98.03
21129;BME280;10722;51.910;8.352;2023-02-28T03:31:44;102335.53;;;-2.56;97.78
21129;BME280;10722;51.910;8.352;2023-02-28T03:34:36;102341.19;;;-2.58;98.17
21129;BME280;10722;51.910;8.352;2023-02-28T03:37:25;102336.13;;;-2.58;97.96
21129;BME280;10722;51.910;8.352;2023-02-28T03:40:15;102346.69;;;-2.62;98.47
21129;BME280;10722;51.910;8.352;2023-02-28T03:43:07;102338.66;;;-2.58;98.67
21129;BME280;10722;51.910;8.352;2023-02-28T03:45:55;102338.97;;;-2.55;98.85
21129;BME280;10722;51.910;8.352;2023-02-28T03:48:57;102345.97;;;-2.61;98.58
21129;BME280;10722;51.910;8.352;2023-02-28T03:51:48;102336.56;;;-2.62;98.69
21129;BME280;10722;51.910;8.352;2023-02-28T03:54:44;102336.44;;;-2.64;98.72
21129;BME280;10722;51.910;8.352;2023-02-28T03:57:39;102336.28;;;-2.65;98.89
21129;BME280;10722;51.910;8.352;2023-02-28T04:00:30;102341.06;;;-2.68;98.62
21129;BME280;10722;51.910;8.352;2023-02-28T04:03:17;102339.69;;;-2.56;98.75
21129;BME280;10722;51.910;8.352;2023-02-28T04:06:02;102338.34;;;-2.44;98.08
21129;BME280;10722;51.910;8.352;2023-02-28T04:08:49;102338.66;;;-2.58;98.11
21129;BME280;10722;51.910;8.352;2023-02-28T04:11:40;102335.66;;;-2.54;98.55
21129;BME280;10722;51.910;8.352;2023-02-28T04:14:26;102344.31;;;-2.43;98.21
21129;BME280;10722;51.910;8.352;2023-02-28T04:17:12;102340.72;;;-2.54;98.32
21129;BME280;10722;51.910;8.352;2023-02-28T04:19:57;102339.25;;;-2.52;98.22
21129;BME280;10722;51.910;8.352;2023-02-28T04:22:42;102344.31;;;-2.43;97.55
21129;BME280;10722;51.910;8.352;2023-02-28T04:25:26;102340.28;;;-2.41;97.37
21129;BME280;10722;51.910;8.352;2023-02-28T04:28:12;102335.63;;;-2.37;97.25
21129;BME280;10722;51.910;8.352;2023-02-28T04:30:59;102333.41;;;-2.51;97.24
21129;BME280;10722;51.910;8.352;2023-02-28T04:33:44;102324.91;;;-2.43;96.87
21129;BME280;10722;51.910;8.352;2023-02-28T04:36:29;102331.47;;;-2.54;96.54
21129;BME280;10722;51.910;8.352;2023-02-28T04:39:18;102324.34;;;-2.58;96.93
21129;BME280;10722;51.910;8.352;2023-02-28T04:42:03;102324.06;;;-2.61;96.56
21129;BME280;10722;51.910;8.352;2023-02-28T04:44:49;102316.63;;;-2.77;96.37
21129;BME280;10722;51.910;8.352;2023-02-28T04:47:34;102307.38;;;-2.94;96.12
21129;BME280;10722;51.910;8.352;2023-02-28T04:50:19;102310.97;;;-3.09;95.86
21129;BME280;10722;51.910;8.352;2023-02-28T04:53:04;102306.78;;;-3.34;96.51
21129;BME280;10722;51.910;8.352;2023-02-28T04:55:49;102316.47;;;-3.39;97.74
21129;BME280;10722;51.910;8.352;2023-02-28T04:58:35;102332.22;;;-3.42;98.31
21129;BME280;10722;51.910;8.352;2023-02-28T05:04:04;102344.25;;;-3.56;99.62
21129;BME280;10722;51.910;8.352;2023-02-28T05:06:49;102338.63;;;-3.45;100.00
21129;BME280;10722;51.910;8.352;2023-02-28T05:09:35;102350.38;;;-3.54;100.00
21129;BME280;10722;51.910;8.352;2023-02-28T05:12:20;102356.47;;;-3.52;100.00
21129;BME280;10722;51.910;8.352;2023-02-28T05:15:05;102351.09;;;-3.55;100.00
21129;BME280;10722;51.910;8.352;2023-02-28T05:17:51;102359.75;;;-3.53;100.00
21129;BME280;10722;51.910;8.352;2023-02-28T05:20:35;102361.50;;;-3.52;100.00
21129;BME280;10722;51.910;8.352;2023-02-28T05:23:22;102373.56;;;-3.58;100.00
21129;BME280;10722;51.910;8.352;2023-02-28T05:26:07;102361.47;;;-3.70;100.00
21129;BME280;10722;51.910;8.352;2023-02-28T05:28:52;102369.22;;;-3.68;100.00
21129;BME280;10722;51.910;8.352;2023-02-28T05:31:38;102371.91;;;-3.67;100.00
21129;BME280;10722;51.910;8.352;2023-02-28T05:34:23;102378.25;;;-3.37;100.00
21129;BME280;10722;51.910;8.352;2023-02-28T05:37:11;102372.72;;;-3.42;100.00
21129;BME280;10722;51.910;8.352;2023-02-28T05:39:57;102368.66;;;-3.57;100.00
21129;BME280;10722;51.910;8.352;2023-02-28T05:42:42;102380.28;;;-3.50;100.00
21129;BME280;10722;51.910;8.352;2023-02-28T05:45:27;102376.50;;;-3.71;100.00
21129;BME280;10722;51.910;8.352;2023-02-28T05:48:13;102372.78;;;-3.66;100.00
21129;BME280;10722;51.910;8.352;2023-02-28T05:50:58;102380.38;;;-3.66;100.00
21129;BME280;10722;51.910;8.352;2023-02-28T05:53:43;102380.53;;;-3.65;100.00
21129;BME280;10722;51.910;8.352;2023-02-28T05:56:29;102382.47;;;-3.71;100.00
21129;BME280;10722;51.910;8.352;2023-02-28T05:59:14;102378.13;;;-3.72;100.00
21129;BME280;10722;51.910;8.352;2023-02-28T06:01:59;102379.44;;;-3.75;100.00
21129;BME280;10722;51.910;8.352;2023-02-28T06:04:45;102381.91;;;-3.93;100.00
21129;BME280;10722;51.910;8.352;2023-02-28T06:07:30;102375.66;;;-3.96;100.00
21129;BME280;10722;51.910;8.352;2023-02-28T06:10:15;102382.09;;;-3.91;100.00
21129;BME280;10722;51.910;8.352;2023-02-28T06:13:02;102385.25;;;-4.10;100.00
21129;BME280;10722;51.910;8.352;2023-02-28T06:15:48;102387.19;;;-4.07;100.00
21129;BME280;10722;51.910;8.352;2023-02-28T06:18:33;102388.53;;;-4.11;100.00
21129;BME280;10722;51.910;8.352;2023-02-28T06:21:18;102387.53;;;-4.20;100.00
21129;BME280;10722;51.910;8.352;2023-02-28T06:24:04;102386.34;;;-4.23;100.00
21129;BME280;10722;51.910;8.352;2023-02-28T06:26:50;102381.69;;;-4.36;100.00
21129;BME280;10722;51.910;8.352;2023-02-28T06:29:36;102393.50;;;-4.44;100.00
21129;BME280;10722;51.910;8.352;2023-02-28T06:32:22;102380.88;;;-4.44;100.00
21129;BME280;10722;51.910;8.352;2023-02-28T06:35:07;102395.97;;;-4.53;100.00
21129;BME280;10722;51.910;8.352;2023-02-28T06:37:53;102406.72;;;-4.46;100.00
21129;BME280;10722;51.910;8.352;2023-02-28T06:40:38;102399.88;;;-4.47;100.00
21129;BME280;10722;51.910;8.352;2023-02-28T06:43:28;102410.22;;;-4.13;100.00
21129;BME280;10722;51.910;8.352;2023-02-28T06:46:14;102418.53;;;-3.80;100.00
21129;BME280;10722;51.910;8.352;2023-02-28T06:48:59;102422.25;;;-3.52;100.00
21129;BME280;10722;51.910;8.352;2023-02-28T06:51:44;102419.75;;;-2.58;100.00
21129;BME280;10722;51.910;8.352;2023-02-28T06:54:29;102407.50;;;-2.54;100.00
21129;BME280;10722;51.910;8.352;2023-02-28T06:57:15;102402.53;;;-2.17;100.00
21129;BME280;10722;51.910;8.352;2023-02-28T07:00:03;102394.16;;;-1.99;100.00
21129;BME280;10722;51.910;8.352;2023-02-28T07:02:49;102388.22;;;-1.72;100.00
21129;BME280;10722;51.910;8.352;2023-02-28T07:05:38;102373.56;;;-1.57;98.98
21129;BME280;10722;51.910;8.352;2023-02-28T07:08:24;102368.31;;;-1.03;97.78
21129;BME280;10722;51.910;8.352;2023-02-28T07:11:10;102356.56;;;-1.11;95.95
21129;BME280;10722;51.910;8.352;2023-02-28T07:13:55;102349.19;;;-1.27;94.03
21129;BME280;10722;51.910;8.352;2023-02-28T07:16:41;102341.50;;;-1.00;93.86
21129;BME280;10722;51.910;8.352;2023-02-28T07:19:26;102327.50;;;-0.86;91.58
21129;BME280;10722;51.910;8.352;2023-02-28T07:22:11;102321.38;;;-0.40;90.79
21129;BME280;10722;51.910;8.352;2023-02-28T07:24:59;102306.94;;;-0.31;89.04
21129;BME280;10722;51.910;8.352;2023-02-28T07:27:44;102297.03;;;-0.17;87.31
21129;BME280;10722;51.910;8.352;2023-02-28T07:30:30;102279.13;;;-0.19;86.08
21129;BME280;10722;51.910;8.352;2023-02-28T07:33:16;102278.34;;;-0.18;85.30
21129;BME280;10722;51.910;8.352;2023-02-28T07:36:03;102252.72;;;-0.40;84.33
21129;BME280;10722;51.910;8.352;2023-02-28T07:38:49;102253.38;;;-0.32;83.79
21129;BME280;10722;51.910;8.352;2023-02-28T07:41:34;102241.53;;;-0.42;83.31
21129;BME280;10722;51.910;8.352;2023-02-28T07:44:19;102250.97;;;-0.31;82.90
21129;BME280;10722;51.910;8.352;2023-02-28T07:47:04;102251.88;;;-0.30;82.70
21129;BME280;10722;51.910;8.352;2023-02-28T07:49:50;102247.81;;;-0.28;82.44
21129;BME280;10722;51.910;8.352;2023-02-28T07:52:38;102236.41;;;-0.52;82.41
21129;BME280;10722;51.910;8.352;2023-02-28T07:55:24;102248.00;;;-0.46;82.60
21129;BME280;10722;51.910;8.352;2023-02-28T07:58:08;102249.03;;;-0.43;82.66
21129;BME280;10722;51.910;8.352;2023-02-28T08:00:57;102248.19;;;-0.24;82.24
21129;BME280;10722;51.910;8.352;2023-02-28T08:03:49;102247.84;;;-0.08;81.77
21129;BME280;10722;51.910;8.352;2023-02-28T08:06:34;102242.25;;;0.07;81.26
21129;BME280;10722;51.910;8.352;2023-02-28T08:09:19;102229.13;;;0.22;80.49
21129;BME280;10722;51.910;8.352;2023-02-28T08:12:06;102218.72;;;0.09;79.48
21129;BME280;10722;51.910;8.352;2023-02-28T08:14:52;102208.78;;;0.22;78.83
21129;BME280;10722;51.910;8.352;2023-02-28T08:17:37;102196.72;;;0.20;78.47
21129;BME280;10722;51.910;8.352;2023-02-28T08:20:24;102195.91;;;0.52;77.46
21129;BME280;10722;51.910;8.352;2023-02-28T08:23:09;102173.97;;;0.64;76.17
21129;BME280;10722;51.910;8.352;2023-02-28T08:25:55;102152.78;;;0.75;74.84
21129;BME280;10722;51.910;8.352;2023-02-28T08:28:41;102138.88;;;1.14;73.85
21129;BME280;10722;51.910;8.352;2023-02-28T08:31:26;102122.94;;;1.39;72.32
21129;BME280;10722;51.910;8.352;2023-02-28T08:34:14;102083.66;;;1.70;70.41
21129;BME280;10722;51.910;8.352;2023-02-28T08:36:59;102068.50;;;1.84;69.16
21129;BME280;10722;51.910;8.352;2023-02-28T08:39:45;102051.97;;;2.14;67.86
21129;BME280;10722;51.910;8.352;2023-02-28T08:42:32;102016.31;;;2.39;65.99
21129;BME280;10722;51.910;8.352;2023-02-28T08:45:17;101990.06;;;3.02;63.70
21129;BME280;10722;51.910;8.352;2023-02-28T08:48:02;101966.50;;;3.19;62.28
21129;BME280;10722;51.910;8.352;2023-02-28T08:51:06;101926.06;;;3.13;60.60
21129;BME280;10722;51.910;8.352;2023-02-28T08:53:53;101899.25;;;2.82;60.03
21129;BME280;10722;51.910;8.352;2023-02-28T08:56:39;101902.97;;;2.87;59.91
21129;BME280;10722;51.910;8.352;2023-02-28T08:59:25;101887.53;;;2.85;59.23
21129;BME280;10722;51.910;8.352;2023-02-28T09:02:13;101875.84;;;2.89;58.71
21129;BME280;10722;51.910;8.352;2023-02-28T09:04:58;101891.75;;;3.10;58.48
21129;BME280;10722;51.910;8.352;2023-02-28T09:07:43;101883.34;;;3.12;57.67
21129;BME280;10722;51.910;8.352;2023-02-28T09:10:28;101891.50;;;3.72;57.20
21129;BME280;10722;51.910;8.352;2023-02-28T09:13:13;101865.34;;;4.04;56.23
21129;BME280;10722;51.910;8.352;2023-02-28T09:16:01;101824.53;;;3.79;55.45
21129;BME280;10722;51.910;8.352;2023-02-28T09:18:46;101822.63;;;4.03;55.05
21129;BME280;10722;51.910;8.352;2023-02-28T09:21:32;101802.13;;;3.62;54.71
21129;BME280;10722;51.910;8.352;2023-02-28T09:24:17;101823.16;;;3.84;55.22
21129;BME280;10722;51.910;8.352;2023-02-28T09:27:03;101832.88;;;4.31;54.61
21129;BME280;10722;51.910;8.352;2023-02-28T09:29:49;101792.38;;;3.69;54.35
21129;BME280;10722;51.910;8.352;2023-02-28T09:32:35;101822.94;;;3.94;54.08
21129;BME280;10722;51.910;8.352;2023-02-28T09:35:21;101832.00;;;3.76;55.01
21129;BME280;10722;51.910;8.352;2023-02-28T09:38:06;101833.00;;;3.51;54.88
21129;BME280;10722;51.910;8.352;2023-02-28T09:40:54;101850.53;;;3.72;54.94
21129;BME280;10722;51.910;8.352;2023-02-28T09:43:45;101864.28;;;3.87;55.28
21129;BME280;10722;51.910;8.352;2023-02-28T09:46:40;101872.22;;;4.05;55.20
21129;BME280;10722;51.910;8.352;2023-02-28T09:49:40;101859.72;;;4.10;54.92
21129;BME280;10722;51.910;8.352;2023-02-28T09:52:31;101842.25;;;3.76;54.67
21129;BME280;10722;51.910;8.352;2023-02-28T09:55:38;101832.56;;;3.44;55.01
21129;BME280;10722;51.910;8.352;2023-02-28T10:01:40;101862.13;;;3.13;55.97
21129;BME280;10722;51.910;8.352;2023-02-28T10:04:52;101870.41;;;3.23;55.94
21129;BME280;10722;51.910;8.352;2023-02-28T10:08:17;101890.91;;;3.49;56.35
21129;BME280;10722;51.910;8.352;2023-02-28T10:11:07;101879.47;;;3.31;56.37
21129;BME280;10722;51.910;8.352;2023-02-28T10:14:03;101892.13;;;3.29;56.27
21129;BME280;10722;51.910;8.352;2023-02-28T10:16:56;101904.78;;;3.53;56.50
21129;BME280;10722;51.910;8.352;2023-02-28T10:22:52;101884.94;;;3.24;56.24
21129;BME280;10722;51.910;8.352;2023-02-28T10:25:39;101905.91;;;3.31;56.51
21129;BME280;10722;51.910;8.352;2023-02-28T10:28:25;101927.28;;;3.45;56.78
21129;BME280;10722;51.910;8.352;2023-02-28T10:31:16;101915.38;;;3.32;56.90
21129;BME280;10722;51.910;8.352;2023-02-28T10:34:02;101923.81;;;3.31;57.08
21129;BME280;10722;51.910;8.352;2023-02-28T10:36:48;101932.38;;;3.32;57.15
21129;BME280;10722;51.910;8.352;2023-02-28T10:39:45;101960.59;;;3.58;57.73
21129;BME280;10722;51.910;8.352;2023-02-28T10:42:31;101964.72;;;3.56;58.28
21129;BME280;10722;51.910;8.352;2023-02-28T10:45:17;101970.03;;;3.59;58.50
21129;BME280;10722;51.910;8.352;2023-02-28T10:51:00;101974.00;;;3.81;58.12
21129;BME280;10722;51.910;8.352;2023-02-28T10:53:51;102001.53;;;4.25;58.98
21129;BME280;10722;51.910;8.352;2023-02-28T10:56:45;102018.53;;;4.64;58.73
21129;BME280;10722;51.910;8.352;2023-02-28T10:59:31;102012.03;;;4.98;58.40
21129;BME280;10722;51.910;8.352;2023-02-28T11:02:34;101976.38;;;4.59;57.84
21129;BME280;10722;51.910;8.352;2023-02-28T11:08:16;101971.28;;;4.33;58.50
21129;BME280;10722;51.910;8.352;2023-02-28T11:11:04;101972.28;;;4.21;58.55
21129;BME280;10722;51.910;8.352;2023-02-28T11:13:53;101973.47;;;4.26;58.34
21129;BME280;10722;51.910;8.352;2023-02-28T11:16:39;101960.41;;;4.09;58.17
21129;BME280;10722;51.910;8.352;2023-02-28T11:19:40;101981.19;;;4.68;58.12
21129;BME280;10722;51.910;8.352;2023-02-28T11:22:32;101938.63;;;4.57;57.27
21129;BME280;10722;51.910;8.352;2023-02-28T11:25:30;101945.09;;;4.65;57.36
21129;BME280;10722;51.910;8.352;2023-02-28T11:28:33;101938.75;;;4.73;57.36
21129;BME280;10722;51.910;8.352;2023-02-28T11:31:19;101990.53;;;5.68;57.64
21129;BME280;10722;51.910;8.352;2023-02-28T11:34:23;101942.97;;;5.90;56.42
21129;BME280;10722;51.910;8.352;2023-02-28T11:37:13;101876.06;;;5.57;54.80
21129;BME280;10722;51.910;8.352;2023-02-28T11:40:00;101880.38;;;5.73;54.63
21129;BME280;10722;51.910;8.352;2023-02-28T11:49:40;101823.13;;;6.88;51.32
21129;BME280;10722;51.910;8.352;2023-02-28T11:55:36;101787.53;;;6.13;51.36
21129;BME280;10722;51.910;8.352;2023-02-28T12:01:38;101791.94;;;6.32;51.92
21129;BME280;10722;51.910;8.352;2023-02-28T12:05:08;101787.63;;;5.98;52.22
21129;BME280;10722;51.910;8.352;2023-02-28T12:20:30;101769.78;;;6.34;51.56
21129;BME280;10722;51.910;8.352;2023-02-28T12:26:46;101755.78;;;5.79;51.72
21129;BME280;10722;51.910;8.352;2023-02-28T12:29:40;101776.16;;;5.93;52.57
21129;BME280;10722;51.910;8.352;2023-02-28T12:32:37;101796.53;;;6.21;52.84
21129;BME280;10722;51.910;8.352;2023-02-28T12:35:54;101802.63;;;6.23;52.68
21129;BME280;10722;51.910;8.352;2023-02-28T12:39:09;101820.13;;;6.30;53.11
21129;BME280;10722;51.910;8.352;2023-02-28T12:41:59;101799.38;;;6.60;52.42
21129;BME280;10722;51.910;8.352;2023-02-28T12:44:49;101841.81;;;7.20;52.79
21129;BME280;10722;51.910;8.352;2023-02-28T12:47:38;101819.13;;;8.41;50.55
21129;BME280;10722;51.910;8.352;2023-02-28T12:50:26;101703.16;;;7.08;49.71
21129;BME280;10722;51.910;8.352;2023-02-28T12:53:28;101719.94;;;7.18;49.96
21129;BME280;10722;51.910;8.352;2023-02-28T12:57:13;101711.00;;;7.11;49.84
21129;BME280;10722;51.910;8.352;2023-02-28T12:59:49;101714.56;;;7.13;50.02
21129;BME280;10722;51.910;8.352;2023-02-28T13:09:16;101718.59;;;7.63;49.58
21129;BME280;10722;51.910;8.352;2023-02-28T13:12:12;101667.59;;;7.56;48.73
21129;BME280;10722;51.910;8.352;2023-02-28T13:15:25;101660.69;;;7.36;48.89
21129;BME280;10722;51.910;8.352;2023-02-28T13:18:31;101719.00;;;8.12;49.27
21129;BME280;10722;51.910;8.352;2023-02-28T13:21:28;101667.66;;;8.37;47.55
21129;BME280;10722;51.910;8.352;2023-02-28T13:27:34;101657.22;;;8.34;47.34
21129;BME280;10722;51.910;8.352;2023-02-28T13:36:41;101568.56;;;8.74;44.76
21129;BME280;10722;51.910;8.352;2023-02-28T13:48:03;101616.28;;;9.54;45.24
21129;BME280;10722;51.910;8.352;2023-02-28T13:50:48;101551.13;;;8.25;45.28
21129;BME280;10722;51.910;8.352;2023-02-28T13:53:59;101555.59;;;7.87;45.74
21129;BME280;10722;51.910;8.352;2023-02-28T14:00:02;101549.81;;;7.72;45.61
21129;BME280;10722;51.910;8.352;2023-02-28T14:03:19;101568.97;;;7.99;45.58
21129;BME280;10722;51.910;8.352;2023-02-28T14:06:33;101562.59;;;7.49;46.26
21129;BME280;10722;51.910;8.352;2023-02-28T14:09:35;101592.53;;;8.28;45.74
21129;BME280;10722;51.910;8.352;2023-02-28T14:15:55;101581.34;;;7.66;46.74
21129;BME280;10722;51.910;8.352;2023-02-28T14:18:48;101600.25;;;7.28;47.69
21129;BME280;10722;51.910;8.352;2023-02-28T14:21:38;101618.25;;;7.28;47.94
21129;BME280;10722;51.910;8.352;2023-02-28T14:27:47;101644.28;;;7.73;48.48
21129;BME280;10722;51.910;8.352;2023-02-28T14:36:41;101606.34;;;7.30;48.29
21129;BME280;10722;51.910;8.352;2023-02-28T14:39:27;101649.84;;;7.43;49.23
21129;BME280;10722;51.910;8.352;2023-02-28T14:42:32;101685.25;;;8.26;49.24
21129;BME280;10722;51.910;8.352;2023-02-28T14:45:19;101677.47;;;8.88;47.90
21129;BME280;10722;51.910;8.352;2023-02-28T14:48:09;101633.34;;;8.59;47.44
21129;BME280;10722;51.910;8.352;2023-02-28T14:50:59;101614.13;;;8.11;48.10
21129;BME280;10722;51.910;8.352;2023-02-28T14:53:49;101594.13;;;7.26;48.70
21129;BME280;10722;51.910;8.352;2023-02-28T14:56:37;101653.94;;;7.57;49.91
21129;BME280;10722;51.910;8.352;2023-02-28T14:59:30;101638.22;;;7.14;50.04
21129;BME280;10722;51.910;8.352;2023-02-28T15:05:20;101664.78;;;7.13;50.47
21129;BME280;10722;51.910;8.352;2023-02-28T15:08:13;101643.78;;;6.86;50.14
21129;BME280;10722;51.910;8.352;2023-02-28T15:11:05;101661.84;;;6.69;50.96
21129;BME280;10722;51.910;8.352;2023-02-28T15:13:54;101666.84;;;6.48;50.98
21129;BME280;10722;51.910;8.352;2023-02-28T15:16:42;101685.38;;;6.95;50.90
21129;BME280;10722;51.910;8.352;2023-02-28T15:19:31;101655.97;;;6.54;50.76
21129;BME280;10722;51.910;8.352;2023-02-28T15:22:29;101656.09;;;6.05;51.51
21129;BME280;10722;51.910;8.352;2023-02-28T15:25:20;101709.84;;;6.35;52.45
21129;BME280;10722;51.910;8.352;2023-02-28T15:28:13;101676.47;;;5.85;52.00
21129;BME280;10722;51.910;8.352;2023-02-28T15:31:02;101688.06;;;5.94;52.48
21129;BME280;10722;51.910;8.352;2023-02-28T15:34:03;101719.81;;;6.45;52.34
21129;BME280;10722;51.910;8.352;2023-02-28T15:36:49;101662.38;;;5.77;51.92
21129;BME280;10722;51.910;8.352;2023-02-28T15:39:41;101694.09;;;5.94;52.52
21129;BME280;10722;51.910;8.352;2023-02-28T15:42:28;101718.19;;;6.31;52.37
21129;BME280;10722;51.910;8.352;2023-02-28T15:45:31;101688.13;;;6.28;51.75
21129;BME280;10722;51.910;8.352;2023-02-28T15:48:24;101693.53;;;6.86;50.95
21129;BME280;10722;51.910;8.352;2023-02-28T15:51:22;101665.88;;;7.00;49.97
21129;BME280;10722;51.910;8.352;2023-02-28T15:54:15;101668.03;;;6.55;50.96
21129;BME280;10722;51.910;8.352;2023-02-28T15:57:05;101686.16;;;6.40;51.52
21129;BME280;10722;51.910;8.352;2023-02-28T16:00:00;101699.13;;;6.95;51.06
21129;BME280;10722;51.910;8.352;2023-02-28T16:02:47;101674.88;;;6.20;51.46
21129;BME280;10722;51.910;8.352;2023-02-28T16:05:32;101729.34;;;7.00;51.82
21129;BME280;10722;51.910;8.352;2023-02-28T16:08:18;101742.56;;;7.07;51.48
21129;BME280;10722;51.910;8.352;2023-02-28T16:11:03;101690.81;;;6.65;51.18
21129;BME280;10722;51.910;8.352;2023-02-28T16:13:49;101717.94;;;6.94;51.52
21129;BME280;10722;51.910;8.352;2023-02-28T16:16:42;101696.09;;;6.86;51.12
21129;BME280;10722;51.910;8.352;2023-02-28T16:19:27;101711.69;;;6.89;51.29
21129;BME280;10722;51.910;8.352;2023-02-28T16:22:13;101705.59;;;6.35;52.19
21129;BME280;10722;51.910;8.352;2023-02-28T16:24:59;101723.22;;;6.62;52.14
21129;BME280;10722;51.910;8.352;2023-02-28T16:27:48;101694.16;;;6.12;52.04
21129;BME280;10722;51.910;8.352;2023-02-28T16:30:34;101707.22;;;5.84;52.97
21129;BME280;10722;51.910;8.352;2023-02-28T16:33:19;101708.56;;;5.45;53.38
21129;BME280;10722;51.910;8.352;2023-02-28T16:36:06;101735.03;;;5.12;54.75
21129;BME280;10722;51.910;8.352;2023-02-28T16:38:51;101755.03;;;4.88;56.05
21129;BME280;10722;51.910;8.352;2023-02-28T16:41:36;101781.50;;;4.87;56.35
21129;BME280;10722;51.910;8.352;2023-02-28T16:44:36;101807.38;;;4.92;56.75
21129;BME280;10722;51.910;8.352;2023-02-28T16:47:21;101807.22;;;4.59;57.42